Time;durP1;ratioP1;P1;durP2;ratioP2;P2;SDS_P1;SDS_P2;PMS_P1;PMS_P2;Temp;Humidity;BMP_temperature;BMP_pressure;BME280_temperature;BME280_humidity;BME280_pressure;Samples;Min_cycle;Max_cycle;Signal;HPM_P1;HPM_P2
2024/04/04 00:02:21;;;;;;;1.92;0.68;;;;;;;;;;5054095;28;20116;-57
2024/04/04 00:04:47;;;;;;;2.78;0.52;;;;;;;;;;5054464;28;20032;-57
2024/04/04 00:07:13;;;;;;;3.58;0.60;;;;;;;;;;5054584;28;20033;-56
2024/04/04 00:09:39;;;;;;;2.10;0.70;;;;;;;;;;5054566;28;20023;-57
2024/04/04 00:12:05;;;;;;;1.95;0.80;;;;;;;;;;5054438;28;20045;-57
2024/04/04 00:14:31;;;;;;;3.30;1.23;;;;;;;;;;5054738;28;20032;-59
2024/04/04 00:16:57;;;;;;;2.10;0.82;;;;;;;;;;5054870;28;20391;-60
2024/04/04 00:19:23;;;;;;;3.40;1.13;;;;;;;;;;5054467;28;20033;-59
2024/04/04 00:21:49;;;;;;;2.45;1.02;;;;;;;;;;5054118;28;20049;-57
2024/04/04 00:24:14;;;;;;;1.05;0.47;;;;;;;;;;5054363;28;20029;-57
2024/04/04 00:26:40;;;;;;;1.23;0.68;;;;;;;;;;5053745;28;20162;-58
2024/04/04 00:29:06;;;;;;;2.20;0.73;;;;;;;;;;5053988;28;20028;-58
2024/04/04 00:31:32;;;;;;;0.85;0.30;;;;;;;;;;5053892;28;20035;-58
2024/04/04 00:33:58;;;;;;;4.63;0.82;;;;;;;;;;5053858;28;20114;-58
2024/04/04 00:36:24;;;;;;;1.10;0.50;;;;;;;;;;5053452;28;20074;-58
2024/04/04 00:38:50;;;;;;;2.15;0.60;;;;;;;;;;5054180;28;20017;-57
2024/04/04 00:41:16;;;;;;;2.83;0.75;;;;;;;;;;5053447;28;20065;-57
2024/04/04 00:43:42;;;;;;;2.97;1.02;;;;;;;;;;5054329;28;20033;-57
2024/04/04 00:46:08;;;;;;;2.88;0.70;;;;;;;;;;5053497;28;20096;-57
2024/04/04 00:48:34;;;;;;;1.52;0.60;;;;;;;;;;5054339;28;20112;-57
2024/04/04 00:51:00;;;;;;;1.05;0.50;;;;;;;;;;5054196;28;20370;-58
2024/04/04 00:53:26;;;;;;;3.92;0.98;;;;;;;;;;5053211;28;20521;-58
2024/04/04 00:55:54;;;;;;;2.25;0.77;;;;;;;;;;5053528;28;20121;-58
2024/04/04 00:58:20;;;;;;;4.93;0.93;;;;;;;;;;5053068;28;20055;-57
2024/04/04 01:00:46;;;;;;;2.22;0.50;;;;;;;;;;5053920;28;20029;-58
2024/04/04 01:03:12;;;;;;;1.33;0.50;;;;;;;;;;5053280;28;20021;-58
2024/04/04 01:05:38;;;;;;;1.75;0.77;;;;;;;;;;5053596;28;20029;-57
2024/04/04 01:08:05;;;;;;;2.47;0.70;;;;;;;;;;5053478;28;20379;-58
2024/04/04 01:10:31;;;;;;;1.02;0.38;;;;;;;;;;5054258;28;20044;-58
2024/04/04 01:12:57;;;;;;;3.05;1.00;;;;;;;;;;5053430;28;20025;-58
2024/04/04 01:15:23;;;;;;;0.98;0.40;;;;;;;;;;5054023;28;20438;-58
2024/04/04 01:17:49;;;;;;;3.45;0.95;;;;;;;;;;5053673;28;20115;-59
2024/04/04 01:20:14;;;;;;;3.05;0.32;;;;;;;;;;5053762;28;20097;-58
2024/04/04 01:22:40;;;;;;;2.50;1.02;;;;;;;;;;5053108;28;20025;-58
2024/04/04 01:25:07;;;;;;;1.92;0.50;;;;;;;;;;5053346;28;20033;-59
2024/04/04 01:27:33;;;;;;;1.33;0.65;;;;;;;;;;5053345;28;20425;-59
2024/04/04 01:29:59;;;;;;;3.90;0.52;;;;;;;;;;5053613;28;20426;-58
2024/04/04 01:32:25;;;;;;;4.13;0.80;;;;;;;;;;5053337;28;20036;-59
2024/04/04 01:34:51;;;;;;;0.90;0.52;;;;;;;;;;5053349;28;20033;-59
2024/04/04 01:37:17;;;;;;;1.48;0.73;;;;;;;;;;5053102;28;20040;-59
2024/04/04 01:39:43;;;;;;;2.28;0.63;;;;;;;;;;5053561;28;20025;-59
2024/04/04 01:42:08;;;;;;;1.90;0.75;;;;;;;;;;5053197;28;20051;-58
2024/04/04 01:44:34;;;;;;;0.50;0.30;;;;;;;;;;5053262;28;20475;-59
2024/04/04 01:47:00;;;;;;;2.40;0.52;;;;;;;;;;5053569;28;20521;-59
2024/04/04 01:49:26;;;;;;;2.90;0.88;;;;;;;;;;5053482;28;20025;-59
2024/04/04 01:51:52;;;;;;;2.05;0.40;;;;;;;;;;5053091;28;20017;-58
2024/04/04 01:54:18;;;;;;;3.20;0.50;;;;;;;;;;5053101;28;20032;-58
2024/04/04 01:56:44;;;;;;;1.80;0.77;;;;;;;;;;5053068;28;20136;-59
2024/04/04 01:59:10;;;;;;;2.42;0.90;;;;;;;;;;5053072;28;20025;-58
2024/04/04 02:01:36;;;;;;;1.80;0.70;;;;;;;;;;5053767;28;20029;-58
2024/04/04 02:04:03;;;;;;;1.00;0.70;;;;;;;;;;5053300;28;20025;-59
2024/04/04 02:06:29;;;;;;;0.93;0.40;;;;;;;;;;5057408;28;20123;-58
2024/04/04 02:08:55;;;;;;;2.13;0.88;;;;;;;;;;5057132;28;20059;-58
2024/04/04 02:11:20;;;;;;;4.47;1.00;;;;;;;;;;5056837;28;20032;-58
2024/04/04 02:13:46;;;;;;;2.25;0.70;;;;;;;;;;5056475;28;20107;-58
2024/04/04 02:16:13;;;;;;;2.42;0.68;;;;;;;;;;5056989;28;20036;-58
2024/04/04 02:18:39;;;;;;;1.95;0.85;;;;;;;;;;5057102;28;20029;-59
2024/04/04 02:21:05;;;;;;;1.65;0.60;;;;;;;;;;5056429;28;20025;-59
2024/04/04 02:23:31;;;;;;;3.53;0.80;;;;;;;;;;5056272;28;20025;-59
2024/04/04 02:25:58;;;;;;;1.35;0.55;;;;;;;;;;5056284;28;20032;-59
2024/04/04 02:28:24;;;;;;;1.25;0.50;;;;;;;;;;5057064;28;20037;-59
2024/04/04 02:30:50;;;;;;;1.30;0.55;;;;;;;;;;5056949;28;20025;-59
2024/04/04 02:33:16;;;;;;;0.95;0.43;;;;;;;;;;5056071;28;20043;-59
2024/04/04 02:35:52;;;;;;;1.45;0.60;;;;;;;;;;5056155;28;20059;-58
2024/04/04 02:38:18;;;;;;;2.25;0.52;;;;;;;;;;5056610;28;20064;-59
2024/04/04 02:40:44;;;;;;;0.35;0.17;;;;;;;;;;5055527;28;20029;-59
2024/04/04 02:43:10;;;;;;;2.30;0.80;;;;;;;;;;5055896;28;20032;-59
2024/04/04 02:45:36;;;;;;;1.50;0.50;;;;;;;;;;5056176;28;20025;-59
2024/04/04 02:48:02;;;;;;;0.98;0.38;;;;;;;;;;5055887;28;20379;-59
2024/04/04 02:50:28;;;;;;;1.38;0.35;;;;;;;;;;5056427;28;20025;-59
2024/04/04 02:52:54;;;;;;;0.95;0.50;;;;;;;;;;5055811;28;20025;-59
2024/04/04 02:55:20;;;;;;;3.22;0.90;;;;;;;;;;5056068;28;20025;-59
2024/04/04 02:57:46;;;;;;;1.00;0.50;;;;;;;;;;5055947;28;20053;-59
2024/04/04 03:00:13;;;;;;;1.15;0.50;;;;;;;;;;5055603;28;20462;-59
2024/04/04 03:02:39;;;;;;;2.97;0.70;;;;;;;;;;5055580;28;20029;-59
2024/04/04 03:05:05;;;;;;;1.90;0.50;;;;;;;;;;5055862;28;20516;-58
2024/04/04 03:07:32;;;;;;;0.47;0.30;;;;;;;;;;5055475;28;20064;-58
2024/04/04 03:09:58;;;;;;;0.95;0.52;;;;;;;;;;5056295;28;20108;-58
2024/04/04 03:12:24;;;;;;;1.13;0.40;;;;;;;;;;5055414;28;20049;-58
2024/04/04 03:14:50;;;;;;;0.88;0.52;;;;;;;;;;5055641;28;20108;-58
2024/04/04 03:17:16;;;;;;;1.67;0.80;;;;;;;;;;5055249;28;20111;-58
2024/04/04 03:19:41;;;;;;;1.35;0.45;;;;;;;;;;5055619;28;20082;-58
2024/04/04 03:22:07;;;;;;;1.40;0.60;;;;;;;;;;5055215;28;20034;-58
2024/04/04 03:24:36;;;;;;;2.55;0.32;;;;;;;;;;5055190;28;20025;-57
2024/04/04 03:27:02;;;;;;;0.88;0.25;;;;;;;;;;5055657;28;20465;-57
2024/04/04 03:29:28;;;;;;;0.73;0.25;;;;;;;;;;5055580;28;20455;-57
2024/04/04 03:31:54;;;;;;;1.27;0.50;;;;;;;;;;5055235;28;20036;-57
2024/04/04 03:34:19;;;;;;;1.75;0.80;;;;;;;;;;5055793;28;20021;-57
2024/04/04 03:36:48;;;;;;;0.73;0.30;;;;;;;;;;5054575;28;20379;-57
2024/04/04 03:39:14;;;;;;;0.45;0.20;;;;;;;;;;5055497;28;20028;-58
2024/04/04 03:41:40;;;;;;;1.60;0.60;;;;;;;;;;5054799;28;20060;-58
2024/04/04 03:44:06;;;;;;;0.90;0.50;;;;;;;;;;5055271;28;20029;-57
2024/04/04 03:46:32;;;;;;;1.20;0.40;;;;;;;;;;5054732;28;20053;-58
2024/04/04 03:48:58;;;;;;;1.40;0.73;;;;;;;;;;5055210;28;20021;-58
2024/04/04 03:51:26;;;;;;;1.52;0.90;;;;;;;;;;5054557;28;20071;-58
2024/04/04 03:53:52;;;;;;;1.17;0.50;;;;;;;;;;5054546;28;20024;-58
2024/04/04 03:56:18;;;;;;;2.08;1.10;;;;;;;;;;5054531;28;20067;-57
2024/04/04 03:58:44;;;;;;;1.50;0.70;;;;;;;;;;5054816;28;20087;-58
2024/04/04 04:01:10;;;;;;;1.30;0.50;;;;;;;;;;5054779;28;20032;-58
2024/04/04 04:03:36;;;;;;;1.45;0.80;;;;;;;;;;5054959;28;20040;-58
2024/04/04 04:06:02;;;;;;;0.90;0.50;;;;;;;;;;5054430;28;20033;-58
2024/04/04 04:08:28;;;;;;;3.10;0.85;;;;;;;;;;5054733;28;20036;-58
2024/04/04 04:10:54;;;;;;;2.40;0.73;;;;;;;;;;5054887;28;20032;-58
2024/04/04 04:13:20;;;;;;;2.75;0.65;;;;;;;;;;5054596;28;20363;-58
2024/04/04 04:16:01;;;;;;;1.17;0.65;;;;;;;;;;5054227;28;20032;-58
2024/04/04 04:18:26;;;;;;;2.15;1.48;;;;;;;;;;5054383;28;20127;-57
2024/04/04 04:23:37;;;;;;;2.08;0.80;;;;;;;;;;5054166;28;20052;-58
2024/04/04 04:26:03;;;;;;;1.30;0.73;;;;;;;;;;5054103;28;20025;-57
2024/04/04 04:28:29;;;;;;;1.67;0.77;;;;;;;;;;5053638;28;20471;-56
2024/04/04 04:30:55;;;;;;;0.75;0.43;;;;;;;;;;5054254;28;20053;-57
2024/04/04 04:33:21;;;;;;;6.07;0.73;;;;;;;;;;5053891;28;20352;-57
2024/04/04 04:35:47;;;;;;;0.77;0.40;;;;;;;;;;5054175;28;20091;-58
2024/04/04 04:38:13;;;;;;;0.77;0.40;;;;;;;;;;5054070;28;20108;-58
2024/04/04 04:40:41;;;;;;;2.55;0.77;;;;;;;;;;5053823;28;20112;-57
2024/04/04 04:43:07;;;;;;;2.05;0.68;;;;;;;;;;5053833;28;20029;-58
2024/04/04 04:45:33;;;;;;;1.00;0.50;;;;;;;;;;5054117;28;20032;-58
2024/04/04 04:47:59;;;;;;;1.42;0.68;;;;;;;;;;5054306;28;20463;-58
2024/04/04 04:50:25;;;;;;;0.88;0.47;;;;;;;;;;5054125;28;20028;-58
2024/04/04 04:52:51;;;;;;;1.27;0.57;;;;;;;;;;5053799;28;20028;-58
2024/04/04 04:55:17;;;;;;;1.42;0.73;;;;;;;;;;5053732;28;20032;-58
2024/04/04 04:57:43;;;;;;;1.83;0.80;;;;;;;;;;5053437;28;20073;-58
2024/04/04 05:00:12;;;;;;;1.42;0.80;;;;;;;;;;5053692;28;20029;-58
2024/04/04 05:02:38;;;;;;;1.20;0.60;;;;;;;;;;5053899;28;20025;-58
2024/04/04 05:05:12;;;;;;;2.25;0.77;;;;;;;;;;5054166;28;20017;-58
2024/04/04 05:07:38;;;;;;;1.67;0.80;;;;;;;;;;5053694;28;20028;-57
2024/04/04 05:10:04;;;;;;;3.95;0.63;;;;;;;;;;5054368;28;20032;-57
2024/04/04 05:12:30;;;;;;;2.60;0.90;;;;;;;;;;5053491;28;20029;-58
2024/04/04 05:14:56;;;;;;;0.52;0.22;;;;;;;;;;5053814;28;20406;-57
2024/04/04 05:17:22;;;;;;;0.98;0.40;;;;;;;;;;5053044;28;20451;-57
2024/04/04 05:19:48;;;;;;;0.70;0.38;;;;;;;;;;5053193;28;20104;-58
2024/04/04 05:22:14;;;;;;;1.48;0.47;;;;;;;;;;5053440;28;20033;-58
2024/04/04 05:24:40;;;;;;;1.58;0.60;;;;;;;;;;5053730;28;20116;-58
2024/04/04 05:27:06;;;;;;;0.98;0.40;;;;;;;;;;5053170;28;20391;-58
2024/04/04 05:29:32;;;;;;;1.35;0.60;;;;;;;;;;5053781;28;20025;-58
2024/04/04 05:31:58;;;;;;;1.63;0.57;;;;;;;;;;5053037;28;20111;-58
2024/04/04 05:34:26;;;;;;;1.50;0.57;;;;;;;;;;5053116;28;20402;-57
2024/04/04 05:36:52;;;;;;;0.98;0.52;;;;;;;;;;5053792;28;20033;-58
2024/04/04 05:39:18;;;;;;;1.30;0.68;;;;;;;;;;5054539;28;20035;-57
2024/04/04 05:41:44;;;;;;;1.00;0.32;;;;;;;;;;5056837;28;20054;-58
2024/04/04 05:44:10;;;;;;;1.80;0.80;;;;;;;;;;5057652;28;20116;-58
2024/04/04 05:46:36;;;;;;;2.22;0.63;;;;;;;;;;5057867;28;20359;-58
2024/04/04 05:49:03;;;;;;;1.95;0.52;;;;;;;;;;5057257;28;20416;-58
2024/04/04 05:51:29;;;;;;;3.92;0.65;;;;;;;;;;5057472;28;20086;-58
2024/04/04 05:53:55;;;;;;;2.80;0.50;;;;;;;;;;5056587;28;20028;-58
2024/04/04 05:56:21;;;;;;;3.03;0.77;;;;;;;;;;5057094;28;20095;-57
2024/04/04 05:58:47;;;;;;;0.63;0.28;;;;;;;;;;5056765;28;20036;-58
2024/04/04 06:01:13;;;;;;;2.33;0.57;;;;;;;;;;5057300;28;20033;-58
2024/04/04 06:03:39;;;;;;;1.40;0.70;;;;;;;;;;5057045;28;20025;-58
2024/04/04 06:06:05;;;;;;;6.97;0.73;;;;;;;;;;5057395;28;20055;-58
2024/04/04 06:08:31;;;;;;;2.20;0.65;;;;;;;;;;5057473;28;20025;-57
2024/04/04 06:10:57;;;;;;;2.30;0.55;;;;;;;;;;5056996;28;20032;-58
2024/04/04 06:13:23;;;;;;;5.00;0.95;;;;;;;;;;5056864;28;20036;-58
2024/04/04 06:15:52;;;;;;;3.08;0.70;;;;;;;;;;5056253;28;20406;-57
2024/04/04 06:18:18;;;;;;;1.17;0.50;;;;;;;;;;5056478;28;20426;-58
2024/04/04 06:20:44;;;;;;;3.55;0.77;;;;;;;;;;5056445;28;20060;-58
2024/04/04 06:23:10;;;;;;;1.15;0.65;;;;;;;;;;5056510;28;20371;-58
2024/04/04 06:25:36;;;;;;;1.80;0.52;;;;;;;;;;5056272;28;20021;-58
2024/04/04 06:28:02;;;;;;;1.92;0.73;;;;;;;;;;5055991;28;20025;-58
2024/04/04 06:30:28;;;;;;;4.40;0.65;;;;;;;;;;5055816;28;20040;-58
2024/04/04 06:32:54;;;;;;;3.38;0.68;;;;;;;;;;5056167;28;20029;-58
2024/04/04 06:35:20;;;;;;;3.13;0.98;;;;;;;;;;5056142;28;20025;-58
2024/04/04 06:37:49;;;;;;;3.33;0.50;;;;;;;;;;5056398;28;20124;-58
2024/04/04 06:40:15;;;;;;;2.60;0.85;;;;;;;;;;5056870;28;20021;-58
2024/04/04 06:42:41;;;;;;;2.47;0.60;;;;;;;;;;5055925;28;20418;-58
2024/04/04 06:45:07;;;;;;;1.85;0.80;;;;;;;;;;5055893;28;20028;-58
2024/04/04 06:47:33;;;;;;;3.00;0.82;;;;;;;;;;5055918;28;20482;-58
2024/04/04 06:50:00;;;;;;;6.43;0.85;;;;;;;;;;5055801;28;20029;-58
2024/04/04 06:52:26;;;;;;;2.67;0.93;;;;;;;;;;5056286;28;20025;-58
2024/04/04 06:54:52;;;;;;;2.35;0.98;;;;;;;;;;5055704;28;20029;-58
2024/04/04 06:57:17;;;;;;;2.40;0.85;;;;;;;;;;5055593;28;20048;-57
2024/04/04 06:59:43;;;;;;;2.10;0.85;;;;;;;;;;5055671;28;20021;-58
2024/04/04 07:02:09;;;;;;;2.55;0.80;;;;;;;;;;5055549;28;20044;-59
2024/04/04 07:04:35;;;;;;;3.63;1.13;;;;;;;;;;5055278;28;20382;-59
2024/04/04 07:07:01;;;;;;;4.20;0.85;;;;;;;;;;5055952;28;20530;-59
2024/04/04 07:09:27;;;;;;;3.78;0.80;;;;;;;;;;5056388;28;20041;-59
2024/04/04 07:11:53;;;;;;;2.65;0.73;;;;;;;;;;5056061;28;20017;-59
2024/04/04 07:14:19;;;;;;;3.42;1.00;;;;;;;;;;5054230;28;20053;-58
2024/04/04 07:16:45;;;;;;;1.88;0.65;;;;;;;;;;5055567;28;20108;-59
2024/04/04 07:19:11;;;;;;;3.38;0.88;;;;;;;;;;5055558;28;20116;-59
2024/04/04 07:21:37;;;;;;;2.95;1.08;;;;;;;;;;5055271;28;20024;-59
2024/04/04 07:24:04;;;;;;;2.95;0.93;;;;;;;;;;5055584;28;20025;-59
2024/04/04 07:26:29;;;;;;;3.13;0.80;;;;;;;;;;5054917;28;20467;-60
2024/04/04 07:28:55;;;;;;;4.68;1.15;;;;;;;;;;5054850;28;20040;-59
2024/04/04 07:31:21;;;;;;;3.60;1.30;;;;;;;;;;5055088;28;20036;-59
2024/04/04 07:33:47;;;;;;;3.00;1.00;;;;;;;;;;5054755;28;20021;-59
2024/04/04 07:36:13;;;;;;;1.65;0.60;;;;;;;;;;5055045;28;20032;-59
2024/04/04 07:38:39;;;;;;;3.30;0.98;;;;;;;;;;5055284;28;20056;-59
2024/04/04 07:41:05;;;;;;;4.10;0.98;;;;;;;;;;5054771;28;20121;-59
2024/04/04 07:43:32;;;;;;;4.10;1.52;;;;;;;;;;5054795;28;20163;-59
2024/04/04 07:46:01;;;;;;;1.60;0.68;;;;;;;;;;5054698;28;20025;-58
2024/04/04 07:48:26;;;;;;;4.93;1.00;;;;;;;;;;5055171;28;20120;-60
2024/04/04 07:50:53;;;;;;;4.32;0.60;;;;;;;;;;5055493;28;20020;-60
2024/04/04 07:53:19;;;;;;;1.33;0.60;;;;;;;;;;5054663;28;20511;-58
2024/04/04 07:55:45;;;;;;;2.22;1.00;;;;;;;;;;5054639;28;20033;-58
2024/04/04 07:58:11;;;;;;;3.55;1.13;;;;;;;;;;5055509;28;20543;-59
2024/04/04 08:00:37;;;;;;;2.28;0.88;;;;;;;;;;5054217;28;20049;-59
2024/04/04 08:03:03;;;;;;;4.65;1.17;;;;;;;;;;5053357;28;20021;-61
2024/04/04 08:05:29;;;;;;;4.50;0.80;;;;;;;;;;5054306;28;20481;-60
2024/04/04 08:07:55;;;;;;;4.20;0.77;;;;;;;;;;5055268;28;20032;-59
2024/04/04 08:10:22;;;;;;;4.32;0.93;;;;;;;;;;5054468;28;20358;-58
2024/04/04 08:12:48;;;;;;;2.92;0.77;;;;;;;;;;5054284;28;20027;-59
2024/04/04 08:15:14;;;;;;;2.15;0.77;;;;;;;;;;5054299;28;20467;-58
2024/04/04 08:17:40;;;;;;;6.65;1.08;;;;;;;;;;5054581;28;20063;-60
2024/04/04 08:20:14;;;;;;;2.28;0.95;;;;;;;;;;5054676;28;20116;-59
2024/04/04 08:22:40;;;;;;;3.85;0.88;;;;;;;;;;5054339;28;20458;-57
2024/04/04 08:25:06;;;;;;;2.95;0.98;;;;;;;;;;5054415;28;20036;-58
2024/04/04 08:27:32;;;;;;;4.20;0.60;;;;;;;;;;5054016;28;20021;-59
2024/04/04 08:29:58;;;;;;;3.42;0.63;;;;;;;;;;5054403;28;20028;-58
2024/04/04 08:32:23;;;;;;;4.43;0.88;;;;;;;;;;5053704;28;20107;-58
2024/04/04 08:34:49;;;;;;;4.28;0.80;;;;;;;;;;5054499;28;20355;-59
2024/04/04 08:37:15;;;;;;;6.20;1.10;;;;;;;;;;5054588;28;20033;-59
2024/04/04 08:39:42;;;;;;;4.20;1.00;;;;;;;;;;5054115;28;20362;-60
2024/04/04 08:42:08;;;;;;;4.10;1.15;;;;;;;;;;5053546;28;20036;-59
2024/04/04 08:44:34;;;;;;;4.43;0.90;;;;;;;;;;5053819;28;20056;-59
2024/04/04 08:47:01;;;;;;;4.85;0.68;;;;;;;;;;5054297;28;20024;-59
2024/04/04 08:49:27;;;;;;;1.95;0.90;;;;;;;;;;5054359;28;20478;-60
2024/04/04 08:51:54;;;;;;;1.65;0.38;;;;;;;;;;5053713;28;20029;-60
2024/04/04 08:54:21;;;;;;;4.15;1.15;;;;;;;;;;5053573;28;20083;-59
2024/04/04 08:56:47;;;;;;;4.70;1.20;;;;;;;;;;5053336;28;20071;-59
2024/04/04 08:59:13;;;;;;;2.50;1.02;;;;;;;;;;5053928;28;20033;-57
2024/04/04 09:01:39;;;;;;;2.40;0.80;;;;;;;;;;5053049;28;20452;-58
2024/04/04 09:04:05;;;;;;;2.28;1.00;;;;;;;;;;5053497;28;20039;-59
2024/04/04 09:06:31;;;;;;;3.97;1.20;;;;;;;;;;5053630;28;20374;-59
2024/04/04 09:08:58;;;;;;;1.50;0.68;;;;;;;;;;5053242;28;20032;-59
2024/04/04 09:11:25;;;;;;;1.05;0.50;;;;;;;;;;5053711;28;20021;-59
2024/04/04 09:14:01;;;;;;;3.00;1.05;;;;;;;;;;5054699;28;20416;-59
2024/04/04 09:16:27;;;;;;;1.95;0.88;;;;;;;;;;5057816;28;20071;-60
2024/04/04 09:18:54;;;;;;;1.25;0.40;;;;;;;;;;5057887;28;20443;-59
2024/04/04 09:21:20;;;;;;;2.45;0.80;;;;;;;;;;5057462;28;20032;-59
2024/04/04 09:23:46;;;;;;;1.98;0.88;;;;;;;;;;5057502;28;20021;-59
2024/04/04 09:26:12;;;;;;;4.15;0.70;;;;;;;;;;5057988;28;20033;-59
2024/04/04 09:28:38;;;;;;;11.07;1.20;;;;;;;;;;5057645;28;20474;-59
2024/04/04 09:31:07;;;;;;;3.45;1.05;;;;;;;;;;5057646;28;20513;-59
2024/04/04 09:33:33;;;;;;;4.18;0.90;;;;;;;;;;5057903;28;20076;-59
2024/04/04 09:36:03;;;;;;;3.28;0.93;;;;;;;;;;5058031;28;20363;-59
2024/04/04 09:38:29;;;;;;;4.43;1.17;;;;;;;;;;5057788;28;20033;-60
2024/04/04 09:40:56;;;;;;;1.48;0.70;;;;;;;;;;5057687;28;20661;-59
2024/04/04 09:43:26;;;;;;;1.42;0.93;;;;;;;;;;5057126;28;20082;-59
2024/04/04 09:45:52;;;;;;;1.45;0.70;;;;;;;;;;5057084;28;20032;-59
2024/04/04 09:48:19;;;;;;;3.72;1.00;;;;;;;;;;5057765;28;20021;-59
2024/04/04 09:50:45;;;;;;;2.58;0.77;;;;;;;;;;5057775;28;20040;-58
2024/04/04 09:53:10;;;;;;;2.45;0.77;;;;;;;;;;5057791;28;20459;-57
2024/04/04 09:55:37;;;;;;;2.72;0.85;;;;;;;;;;5057503;28;20079;-57
2024/04/04 09:58:03;;;;;;;3.53;1.00;;;;;;;;;;5057379;28;20048;-57
2024/04/04 10:00:29;;;;;;;2.92;0.57;;;;;;;;;;5057089;28;20021;-57
2024/04/04 10:02:56;;;;;;;1.75;0.50;;;;;;;;;;5057546;28;20196;-58
2024/04/04 10:05:36;;;;;;;5.45;0.60;;;;;;;;;;5057291;28;20404;-58
2024/04/04 10:08:11;;;;;;;1.42;0.45;;;;;;;;;;5057041;28;20021;-58
2024/04/04 10:10:37;;;;;;;1.63;0.70;;;;;;;;;;5057079;28;20029;-59
2024/04/04 10:13:07;;;;;;;1.65;0.85;;;;;;;;;;5056966;28;20025;-58
2024/04/04 10:15:43;;;;;;;1.75;0.85;;;;;;;;;;5056935;28;20031;-58
2024/04/04 10:18:10;;;;;;;3.20;0.95;;;;;;;;;;5057002;28;20037;-58
2024/04/04 10:20:39;;;;;;;1.60;0.52;;;;;;;;;;5056988;28;20371;-59
2024/04/04 10:23:08;;;;;;;1.40;0.60;;;;;;;;;;5056614;28;20459;-58
2024/04/04 10:25:37;;;;;;;2.70;0.40;;;;;;;;;;5055329;28;20493;-58
2024/04/04 10:28:03;;;;;;;3.50;0.93;;;;;;;;;;5057013;28;20032;-58
2024/04/04 10:30:34;;;;;;;1.65;1.00;;;;;;;;;;5056684;28;20055;-58
2024/04/04 10:33:05;;;;;;;4.85;0.75;;;;;;;;;;5056355;28;20040;-58
2024/04/04 10:35:31;;;;;;;2.88;0.75;;;;;;;;;;5056277;28;20463;-58
2024/04/04 10:38:05;;;;;;;2.42;1.02;;;;;;;;;;5056092;28;20067;-58
2024/04/04 10:40:31;;;;;;;4.18;0.75;;;;;;;;;;5056318;28;20029;-58
2024/04/04 10:42:57;;;;;;;1.95;0.82;;;;;;;;;;5055992;28;20083;-58
2024/04/04 10:45:23;;;;;;;2.17;0.60;;;;;;;;;;5055972;28;20100;-58
2024/04/04 10:47:54;;;;;;;4.95;1.02;;;;;;;;;;5056042;28;20024;-59
2024/04/04 10:50:20;;;;;;;2.50;0.82;;;;;;;;;;5056527;28;20021;-58
2024/04/04 10:52:46;;;;;;;2.03;0.95;;;;;;;;;;5056393;28;20104;-58
2024/04/04 10:55:12;;;;;;;1.80;0.60;;;;;;;;;;5055847;28;20029;-58
2024/04/04 10:57:39;;;;;;;2.38;0.60;;;;;;;;;;5056645;28;20056;-58
2024/04/04 11:00:14;;;;;;;1.70;0.70;;;;;;;;;;5056245;28;20044;-58
2024/04/04 11:02:46;;;;;;;3.35;1.15;;;;;;;;;;5056279;28;20029;-58
2024/04/04 11:05:12;;;;;;;2.83;0.85;;;;;;;;;;5056159;28;20029;-58
2024/04/04 11:07:42;;;;;;;2.83;0.70;;;;;;;;;;5056412;28;20052;-58
2024/04/04 11:10:10;;;;;;;6.07;0.98;;;;;;;;;;5056121;28;20025;-58
2024/04/04 11:12:37;;;;;;;4.50;1.10;;;;;;;;;;5055810;28;20024;-58
2024/04/04 11:15:05;;;;;;;2.13;0.95;;;;;;;;;;5055521;28;20020;-58
2024/04/04 11:17:31;;;;;;;2.78;0.88;;;;;;;;;;5055297;28;20040;-58
2024/04/04 11:20:02;;;;;;;2.42;0.70;;;;;;;;;;5056167;28;20033;-58
2024/04/04 11:22:28;;;;;;;1.67;0.82;;;;;;;;;;5055809;28;20025;-58
2024/04/04 11:24:54;;;;;;;1.52;0.70;;;;;;;;;;5055207;28;20455;-58
2024/04/04 11:27:20;;;;;;;0.70;0.30;;;;;;;;;;5055222;28;20036;-58
2024/04/04 11:29:46;;;;;;;4.55;1.13;;;;;;;;;;5055450;28;20021;-58
2024/04/04 11:32:12;;;;;;;3.00;0.70;;;;;;;;;;5055094;28;20021;-58
2024/04/04 11:34:37;;;;;;;3.17;0.80;;;;;;;;;;5055291;28;20086;-58
2024/04/04 11:37:04;;;;;;;2.70;0.55;;;;;;;;;;5053965;28;20031;-58
2024/04/04 11:39:30;;;;;;;2.50;0.82;;;;;;;;;;5055490;28;20451;-58
2024/04/04 11:41:56;;;;;;;3.03;1.17;;;;;;;;;;5054588;28;20025;-58
2024/04/04 11:44:21;;;;;;;3.10;0.60;;;;;;;;;;5055340;28;20117;-58
2024/04/04 11:46:47;;;;;;;3.90;0.68;;;;;;;;;;5055147;28;20056;-58
2024/04/04 11:49:16;;;;;;;2.83;1.30;;;;;;;;;;5055391;28;20032;-58
2024/04/04 11:51:42;;;;;;;1.60;0.60;;;;;;;;;;5054768;28;20046;-58
2024/04/04 11:54:08;;;;;;;2.05;1.17;;;;;;;;;;5055009;28;20475;-58
2024/04/04 11:56:34;;;;;;;2.40;0.70;;;;;;;;;;5054632;28;20048;-58
2024/04/04 11:59:01;;;;;;;2.00;0.60;;;;;;;;;;5054566;28;20029;-58
2024/04/04 12:01:27;;;;;;;2.53;0.93;;;;;;;;;;5054635;28;20082;-58
2024/04/04 12:03:53;;;;;;;2.75;1.25;;;;;;;;;;5055379;28;20060;-58
2024/04/04 12:06:19;;;;;;;1.58;0.68;;;;;;;;;;5054434;28;20411;-59
2024/04/04 12:08:47;;;;;;;1.25;0.82;;;;;;;;;;5054740;28;20528;-59
2024/04/04 12:11:13;;;;;;;4.43;0.70;;;;;;;;;;5054917;28;20374;-59
2024/04/04 12:13:39;;;;;;;1.42;0.60;;;;;;;;;;5054661;28;20091;-59
2024/04/04 12:16:08;;;;;;;2.95;1.00;;;;;;;;;;5054375;28;20037;-59
2024/04/04 12:21:18;;;;;;;2.58;0.77;;;;;;;;;;5054602;28;20445;-59
2024/04/04 12:23:45;;;;;;;2.40;1.17;;;;;;;;;;5053800;28;20029;-58
2024/04/04 12:26:12;;;;;;;1.60;0.73;;;;;;;;;;5054414;28;20081;-57
2024/04/04 12:28:38;;;;;;;3.42;1.08;;;;;;;;;;5054396;28;20463;-58
2024/04/04 12:31:04;;;;;;;2.00;0.65;;;;;;;;;;5054093;28;20100;-58
2024/04/04 12:33:30;;;;;;;1.20;0.55;;;;;;;;;;5054065;28;20068;-59
2024/04/04 12:35:56;;;;;;;2.45;0.60;;;;;;;;;;5053968;28;20032;-59
2024/04/04 12:38:22;;;;;;;3.72;1.10;;;;;;;;;;5053848;28;20029;-58
2024/04/04 12:40:48;;;;;;;1.45;0.68;;;;;;;;;;5053995;28;20474;-58
2024/04/04 12:43:15;;;;;;;2.05;0.63;;;;;;;;;;5053872;28;20029;-59
2024/04/04 12:45:41;;;;;;;3.17;0.50;;;;;;;;;;5053937;28;20021;-59
2024/04/04 12:48:07;;;;;;;5.10;0.77;;;;;;;;;;5053530;28;20036;-59
2024/04/04 12:50:33;;;;;;;1.35;0.57;;;;;;;;;;5053844;28;20021;-59
2024/04/04 12:52:58;;;;;;;0.75;0.45;;;;;;;;;;5053408;28;20533;-58
2024/04/04 12:55:24;;;;;;;2.22;0.52;;;;;;;;;;5054032;28;20029;-59
2024/04/04 12:57:51;;;;;;;2.38;0.60;;;;;;;;;;5053418;28;20103;-59
2024/04/04 13:00:19;;;;;;;1.77;0.68;;;;;;;;;;5053664;28;20048;-59
2024/04/04 13:02:46;;;;;;;1.35;0.30;;;;;;;;;;5054161;28;20035;-59
2024/04/04 13:05:12;;;;;;;0.75;0.30;;;;;;;;;;5054416;28;20029;-59
2024/04/04 13:07:38;;;;;;;1.40;0.60;;;;;;;;;;5053644;28;20086;-59
2024/04/04 13:10:04;;;;;;;0.85;0.38;;;;;;;;;;5054024;28;20013;-58
2024/04/04 13:12:30;;;;;;;2.22;0.30;;;;;;;;;;5053232;28;20464;-59
2024/04/04 13:14:56;;;;;;;1.13;0.40;;;;;;;;;;5053539;28;20033;-59
2024/04/04 13:17:22;;;;;;;1.50;0.32;;;;;;;;;;5053433;28;20029;-59
2024/04/04 13:19:48;;;;;;;1.00;0.32;;;;;;;;;;5053462;28;20021;-58
2024/04/04 13:22:14;;;;;;;1.30;0.30;;;;;;;;;;5053310;28;20502;-58
2024/04/04 13:24:40;;;;;;;1.75;0.40;;;;;;;;;;5053328;28;20021;-58
2024/04/04 13:27:06;;;;;;;0.50;0.20;;;;;;;;;;5053439;28;20458;-59
2024/04/04 13:29:32;;;;;;;0.45;0.22;;;;;;;;;;5052836;28;20035;-59
2024/04/04 13:31:58;;;;;;;3.50;0.60;;;;;;;;;;5053452;28;20029;-60
2024/04/04 13:34:28;;;;;;;0.90;0.30;;;;;;;;;;5053292;28;20033;-59
2024/04/04 13:36:53;;;;;;;0.98;0.45;;;;;;;;;;5053384;28;20018;-59
2024/04/04 13:39:19;;;;;;;0.90;0.38;;;;;;;;;;5053820;28;20032;-59
2024/04/04 13:41:45;;;;;;;0.55;0.25;;;;;;;;;;5053398;28;20067;-59
2024/04/04 13:44:12;;;;;;;1.52;0.38;;;;;;;;;;5053490;28;20053;-59
2024/04/04 13:46:39;;;;;;;0.75;0.20;;;;;;;;;;5053276;28;20029;-59
2024/04/04 13:49:05;;;;;;;0.82;0.30;;;;;;;;;;5053604;28;20060;-59
2024/04/04 13:51:31;;;;;;;1.45;0.57;;;;;;;;;;5053027;28;20371;-59
2024/04/04 13:53:57;;;;;;;1.10;0.47;;;;;;;;;;5053278;28;20025;-59
2024/04/04 13:56:23;;;;;;;1.70;0.30;;;;;;;;;;5052554;28;20049;-59
2024/04/04 13:58:49;;;;;;;1.27;0.50;;;;;;;;;;5053449;28;20362;-59
2024/04/04 14:01:15;;;;;;;0.98;0.40;;;;;;;;;;5055247;28;20415;-57
2024/04/04 14:03:41;;;;;;;2.10;0.80;;;;;;;;;;5056284;28;20024;-57
2024/04/04 14:06:07;;;;;;;0.75;0.35;;;;;;;;;;5057266;28;20045;-57
2024/04/04 14:08:33;;;;;;;1.60;0.55;;;;;;;;;;5056995;28;20438;-57
2024/04/04 14:11:17;;;;;;;0.35;0.10;;;;;;;;;;5055894;28;20025;-58
2024/04/04 14:13:43;;;;;;;0.50;0.20;;;;;;;;;;5056657;28;20032;-58
2024/04/04 14:16:10;;;;;;;3.40;0.70;;;;;;;;;;5056501;28;20375;-58
2024/04/04 14:18:36;;;;;;;1.73;0.68;;;;;;;;;;5057299;28;20057;-58
2024/04/04 14:21:02;;;;;;;2.65;0.63;;;;;;;;;;5056460;28;20086;-57
2024/04/04 14:23:27;;;;;;;0.90;0.40;;;;;;;;;;5056427;28;20025;-58
2024/04/04 14:25:53;;;;;;;1.17;0.50;;;;;;;;;;5056286;28;20459;-58
2024/04/04 14:28:19;;;;;;;0.28;0.20;;;;;;;;;;5056867;28;20048;-58
2024/04/04 14:30:46;;;;;;;1.00;0.57;;;;;;;;;;5056935;28;20445;-58
2024/04/04 14:33:12;;;;;;;3.20;0.63;;;;;;;;;;5056127;28;20025;-58
2024/04/04 14:35:38;;;;;;;1.73;0.50;;;;;;;;;;5055863;28;20032;-58
2024/04/04 14:38:04;;;;;;;2.00;0.68;;;;;;;;;;5056191;28;20025;-58
2024/04/04 14:40:30;;;;;;;1.77;0.65;;;;;;;;;;5056146;28;20127;-58
2024/04/04 14:42:58;;;;;;;1.23;0.63;;;;;;;;;;5055881;28;20075;-57
2024/04/04 14:45:24;;;;;;;1.23;0.43;;;;;;;;;;5055987;28;20052;-58